TAF Benelux - 12 Dec 2017 - 2347 UTC - RocketRoute WX - rrwx.com
EBBR 121710Z 1218/1324 20010KT 9999 FEW020 SCT040 TEMPO 1300/1324 20015G25KT TEMPO 1306/1310 4000 RADZ SCT005 BKN007 TEMPO 1315/1319 4000 RA SHRA SCT008 BKN012 EBCI 121710Z 1218/1324 19010KT 9999 FEW020 SCT040 TEMPO 1300/1324 20015G25KT BECMG 1304/1306 SCT010 BKN012 TEMPO 1306/1310 4000 RADZ SCT005 BKN007 TEMPO 1315/1319 4000 RA SHRA SCT007 BKN010 EBAW 122000Z 1221/1306 20010KT 7000 FEW020 SCT040 BECMG 1303/1305 20015G25KT BKN014 TEMPO 1305/1306 4000 RADZ SCT005 BKN008 EBLG 121710Z 1218/1324 19010KT 9999 FEW020 SCT040 TEMPO 1301/1324 20015G25KT BECMG 1305/1307 SCT010 BKN012 TEMPO 1307/1311 4000 RADZ SCT005 BKN007 TEMPO 1317/1321 4000 RA SHRA SCT007 BKN010 EBOS 121710Z 1218/1324 19010KT 9999 FEW020 SCT045 TEMPO 1300/1309 20020G36KT TEMPO 1303/1308 4000 RADZ SCT007 BKN009 BECMG 1307/1309 26017KT TEMPO 1313/1317 22018G30KT TEMPO 1315/1318 4000 RA SHRA SCT008 BKN012 EHEH 121720Z 1218/1324 21007KT 4000 BR BKN005 OVC007 BECMG 1219/1222 6000 NSW FEW012 SCT020 PROB30 1222/1306 3000 BR BECMG 1300/1303 19015G25KT BECMG 1306/1308 4000 -RASN SCT008 BKN012 TEMPO 1306/1312 3000 RASN SCT005 BKN009 BECMG 1311/1313 9999 NSW FEW005 SCT012 BKN020 PROB40 TEMPO 1311/1324 4000 SHRA SCT005 BKN010 SCT015CB TEMPO 1317/1322 4500 RA SCT005 BKN008 OVC010 BECMG 1322/1324 26012KT SCT020 EHGG AMD 122111Z 1221/1324 21012KT 6000 BKN003 BECMG 1221/1223 2000 BR BECMG 1223/1302 9999 NSW SCT020 BECMG 1306/1309 19018G28KT 4000 -RASN BKN006 PROB40 TEMPO 1307/1311 2000 SNRA BKN003 PROB30 TEMPO 1311/1313 2500 RASN BKN004 BECMG 1312/1315 22014KT 9999 NSW BKN020 BECMG 1315/1318 18017G27KT 6000 -RA BKN012 TEMPO 1318/1322 4000 RA BKN006 BECMG 1321/1324 26014KT 9999 NSW SCT020 EHBK 121723Z 1218/1324 22011KT 9999 BKN012 BECMG 1218/1221 SCT020 BECMG 1300/1303 19018KT BECMG 1307/1310 21023G33KT 7000 -RA BKN012 TEMPO 1308/1312 4000 RA RASN BKN006 BECMG 1312/1315 22016KT 9999 NSW BKN018 BECMG 1315/1318 20020G30KT 7000 -RA BKN012 TEMPO 1318/1322 4000 RA BKN006 BECMG 1321/1324 25014KT 9999 NSW SCT020 EHRD 121713Z 1218/1324 20013KT 9999 FEW025 BECMG 1304/1306 19017G27KT 6000 RA SCT008 BKN012 TEMPO 1304/1310 3000 DZRA BKN005 PROB30 TEMPO 1304/1307 RASN BECMG 1310/1312 25015G25KT 9999 NSW SCT020 BECMG 1316/1318 20018G28KT 7000 RA SCT008 BKN012 PROB30 TEMPO 1318/1320 4500 SHRA SCT008 BKN012 SCT015CB BECMG 1319/1321 27015G25KT 9999 NSW SCT025 EHAM 121713Z 1218/1324 20013KT 9999 FEW025 BECMG 1304/1306 19017G27KT 6000 RA SCT008 BKN012 TEMPO 1304/1310 3000 DZRA BKN005 PROB30 TEMPO 1304/1307 RASN BECMG 1310/1312 25015G25KT 9999 NSW SCT020 BECMG 1316/1318 20018G28KT 7000 RA SCT008 BKN012 PROB30 TEMPO 1318/1320 4500 SHRA SCT008 BKN012 SCT015CB BECMG 1319/1321 27015G25KT 9999 NSW SCT025 ELLX AMD 121900Z 1218/1324 24010KT 9999 BKN005 BECMG 1222/1224 18005KT 2500 BR BKN003 BECMG 1306/1309 18015G25KT 3000 -SN BKN005 BKN007 BECMG 1313/1315 7000 -RA BKN015 TEMPO 1313/1318 RA BKN012 BECMG 1320/1322 RA SCT005 BKN007 BECMG 1322/1324 25015G30KT

RocketRoute WX - rrwx.com weather for pilots